CheckWX is a tool to help pilots better visualize weather data.  It is not intended as a substitute for an official pre-flight weather briefing.

00:01:56 UTC

LFPN METAR
Toussus-le-Noble Airport
Toussus-le-Noble, France
Current

32 mins ago

LFPN 062330Z AUTO 24010KT 9999 BKN008 BKN013 OVC021 09/08 Q1014
Observed
Dec-6 @ 23:30 UTC
Wind
  • 240° at 10 KTS
Visibility
10,000+ meters
Flight Rules
IFR
Cloud Levels
  • Broken at 800' AGL
  • Broken at 1,300' AGL
  • Overcast at 2,100' AGL
Temperature
C / 48°F
Dewpoint
C / 46°F
Humidity
94%
Altimeter
29.94" Hg
Pressure
1013.92 hPa
Previous

1 hour ago

LFPN 062300Z AUTO 24011KT 8000 DZ BKN009 OVC014 09/08 Q1014
Observed
Dec-6 @ 23:00 UTC
Wind
  • 240° at 11 KTS
Visibility
8,000 meters
Flight Rules
IFR
Conditions
Drizzle
Cloud Levels
  • Broken at 900' AGL
  • Overcast at 1,400' AGL
Temperature
C / 48°F
Dewpoint
C / 46°F
Humidity
94%
Altimeter
29.94" Hg
Pressure
1013.92 hPa
Previous

2 hours ago

LFPN 062230Z AUTO 24010KT 9999 SCT010 BKN018 BKN035 09/08 Q1014
Observed
Dec-6 @ 22:30 UTC
Wind
  • 240° at 10 KTS
Visibility
10,000+ meters
Flight Rules
MVFR
Cloud Levels
  • Scattered at 1,000' AGL
  • Broken at 1,800' AGL
  • Broken at 3,500' AGL
Temperature
C / 48°F
Dewpoint
C / 46°F
Humidity
94%
Altimeter
29.94" Hg
Pressure
1013.92 hPa